Airfield :
LOGIN :

Register | Disclaimer

   EN    FR    IT 

 










Legend :    VFR   Marginal VFR   IFR   Intensive IFR   Very Intensive IFR
Visi :
Ceiling :
>= 8 km
>= 3000ft
5 to 8 km
1000 to 3000 ft
1500m to 5 km
500 to 1000 ft
800 to 1500m
200 to 500 ft
< 800m
< 200 ft
Symbols :   Thunderstorms  Fog  Heavy snow  Heavy precipitations  Wind > 20 kt
SIGMETs :     Misc.  Thunderstorms  Icing  Turbulence  Mountain Waves  Volcanic Ashes






- Airport Elevation : 919 ft
- IATA code : IFO


UKLI - Ivano Frankivs'k

CURRENT METAR :
  • 231600Z 05002MPS 020V090 9999 BKN046 07/02 Q1009 R28/090070 NOSIG

EXPIRED METARs :
  • 231530Z 06001MPS CAVOK 07/02 Q1010 R28/090070 NOSIG
  • 231500Z 04002MPS 350V080 CAVOK 08/02 Q1010 R28/090070 NOSIG
  • 231430Z 08003MPS CAVOK 08/02 Q1011 R28/090070 NOSIG
  • 231400Z 06002MPS 030V100 CAVOK 09/02 Q1011 R28/090070 NOSIG
  • 231330Z 34003MPS 310V010 CAVOK 09/01 Q1012 R28/090070 NOSIG

TAF TAF UKLI
Valid from the 23 at 15:00 until the 24 at 00:00 UTC


231404Z 2315/2324 32007G12MPS 6000 SCT020CB BKN030 TX08/2315Z TN05/2320Z
TEMPO 2315/2320 28015G20MPS 2100 -SHRASN BKN007 BKN012CB



MET'MAP, your aeronautical weather chart ! - Copyright ORBIFLY December 2007 - Disclaimer

ORBIFLY MET'MAP TEAM :

Programming & Development : Alexandra Zaïnal
Concept & original design : Baudouin d'Aumeries
Assistance for programming : Marc-Olivier Méhu
Technical & hardware support : Manuel Goepfert

Contact : metmap@orbifly.com




SOURCES & CREDITS :

   NOAA